sensor_id;sensor_type;location;lat;lon;timestamp;pressure;altitude;pressure_sealevel;temperature;humidity
14089;BME280;7120;52.890;6.040;2023-02-11T00:01:41;103153.84;;;7.12;84.83
14089;BME280;7120;52.890;6.040;2023-02-11T00:04:07;103164.63;;;7.19;85.37
14089;BME280;7120;52.890;6.040;2023-02-11T00:06:33;103171.59;;;7.14;85.01
14089;BME280;7120;52.890;6.040;2023-02-11T00:08:59;103178.53;;;7.10;86.03
14089;BME280;7120;52.890;6.040;2023-02-11T00:11:25;103178.72;;;7.15;85.62
14089;BME280;7120;52.890;6.040;2023-02-11T00:13:57;103170.41;;;7.04;85.85
14089;BME280;7120;52.890;6.040;2023-02-11T00:16:22;103170.09;;;6.94;85.89
14089;BME280;7120;52.890;6.040;2023-02-11T00:18:48;103165.69;;;6.93;85.61
14089;BME280;7120;52.890;6.040;2023-02-11T00:21:20;103156.44;;;7.00;85.37
14089;BME280;7120;52.890;6.040;2023-02-11T00:23:46;103148.31;;;6.94;86.84
14089;BME280;7120;52.890;6.040;2023-02-11T00:26:17;103127.13;;;6.77;87.29
14089;BME280;7120;52.890;6.040;2023-02-11T00:28:43;103139.75;;;6.90;87.18
14089;BME280;7120;52.890;6.040;2023-02-11T00:31:09;103128.72;;;6.85;87.37
14089;BME280;7120;52.890;6.040;2023-02-11T00:33:34;103118.28;;;6.82;88.17
14089;BME280;7120;52.890;6.040;2023-02-11T00:36:08;103116.38;;;6.82;87.49
14089;BME280;7120;52.890;6.040;2023-02-11T00:38:34;103115.19;;;6.78;87.87
14089;BME280;7120;52.890;6.040;2023-02-11T00:41:00;103119.41;;;6.68;87.92
14089;BME280;7120;52.890;6.040;2023-02-11T00:43:25;103111.03;;;6.69;87.89
14089;BME280;7120;52.890;6.040;2023-02-11T00:45:50;103125.31;;;6.65;88.83
14089;BME280;7120;52.890;6.040;2023-02-11T00:48:16;103133.19;;;6.73;88.17
14089;BME280;7120;52.890;6.040;2023-02-11T00:50:41;103137.88;;;6.59;88.37
14089;BME280;7120;52.890;6.040;2023-02-11T00:53:06;103151.03;;;6.62;89.67
14089;BME280;7120;52.890;6.040;2023-02-11T00:55:32;103167.69;;;6.79;89.21
14089;BME280;7120;52.890;6.040;2023-02-11T00:57:58;103156.38;;;6.44;89.02
14089;BME280;7120;52.890;6.040;2023-02-11T01:00:25;103165.25;;;6.64;89.70
14089;BME280;7120;52.890;6.040;2023-02-11T01:02:50;103156.47;;;6.62;89.20
14089;BME280;7120;52.890;6.040;2023-02-11T01:05:16;103175.88;;;6.72;88.74
14089;BME280;7120;52.890;6.040;2023-02-11T01:07:41;103153.59;;;6.57;88.70
14089;BME280;7120;52.890;6.040;2023-02-11T01:10:07;103169.22;;;6.61;90.17
14089;BME280;7120;52.890;6.040;2023-02-11T01:12:32;103170.31;;;6.54;89.81
14089;BME280;7120;52.890;6.040;2023-02-11T01:14:58;103160.28;;;6.54;90.16
14089;BME280;7120;52.890;6.040;2023-02-11T01:17:24;103150.09;;;6.50;90.81
14089;BME280;7120;52.890;6.040;2023-02-11T01:19:49;103154.84;;;6.54;90.69
14089;BME280;7120;52.890;6.040;2023-02-11T01:22:14;103137.66;;;6.60;89.54
14089;BME280;7120;52.890;6.040;2023-02-11T01:24:40;103157.53;;;6.61;90.92
14089;BME280;7120;52.890;6.040;2023-02-11T01:27:06;103149.97;;;6.70;90.29
14089;BME280;7120;52.890;6.040;2023-02-11T01:29:32;103156.19;;;6.77;90.26
14089;BME280;7120;52.890;6.040;2023-02-11T01:31:57;103148.75;;;6.91;90.26
14089;BME280;7120;52.890;6.040;2023-02-11T01:34:24;103145.78;;;6.99;88.94
14089;BME280;7120;52.890;6.040;2023-02-11T01:36:49;103148.81;;;7.09;88.82
14089;BME280;7120;52.890;6.040;2023-02-11T01:39:14;103149.53;;;7.23;88.90
14089;BME280;7120;52.890;6.040;2023-02-11T01:41:40;103149.66;;;7.34;88.80
14089;BME280;7120;52.890;6.040;2023-02-11T01:44:30;103141.09;;;7.31;88.37
14089;BME280;7120;52.890;6.040;2023-02-11T01:46:56;103144.22;;;7.34;88.53
14089;BME280;7120;52.890;6.040;2023-02-11T01:49:33;103144.88;;;7.55;87.41
14089;BME280;7120;52.890;6.040;2023-02-11T01:54:53;103145.06;;;7.53;87.83
14089;BME280;7120;52.890;6.040;2023-02-11T01:57:41;103147.59;;;7.55;88.23
14089;BME280;7120;52.890;6.040;2023-02-11T02:00:12;103142.22;;;7.48;88.50
14089;BME280;7120;52.890;6.040;2023-02-11T02:02:49;103141.00;;;7.62;88.54
14089;BME280;7120;52.890;6.040;2023-02-11T02:05:33;103148.47;;;7.67;88.24
14089;BME280;7120;52.890;6.040;2023-02-11T02:10:43;103141.91;;;7.75;87.14
14089;BME280;7120;52.890;6.040;2023-02-11T02:13:10;103122.03;;;7.56;88.63
14089;BME280;7120;52.890;6.040;2023-02-11T02:15:38;103117.84;;;7.53;88.08
14089;BME280;7120;52.890;6.040;2023-02-11T02:34:19;103113.31;;;7.47;89.71
14089;BME280;7120;52.890;6.040;2023-02-11T02:36:56;103114.03;;;7.36;90.34
14089;BME280;7120;52.890;6.040;2023-02-11T02:39:28;103105.94;;;7.29;91.00
14089;BME280;7120;52.890;6.040;2023-02-11T02:41:56;103115.19;;;7.47;90.38
14089;BME280;7120;52.890;6.040;2023-02-11T02:44:22;103099.91;;;7.27;91.35
14089;BME280;7120;52.890;6.040;2023-02-11T02:46:48;103105.13;;;7.29;90.69
14089;BME280;7120;52.890;6.040;2023-02-11T02:49:15;103099.50;;;7.24;91.63
14089;BME280;7120;52.890;6.040;2023-02-11T02:59:56;103111.50;;;7.16;91.70
14089;BME280;7120;52.890;6.040;2023-02-11T03:02:34;103102.22;;;7.24;91.50
14089;BME280;7120;52.890;6.040;2023-02-11T03:08:10;103100.44;;;7.11;91.41
14089;BME280;7120;52.890;6.040;2023-02-11T03:10:40;103090.97;;;7.20;91.30
14089;BME280;7120;52.890;6.040;2023-02-11T03:13:07;103093.41;;;7.03;92.63
14089;BME280;7120;52.890;6.040;2023-02-11T03:15:38;103079.25;;;6.95;91.89
14089;BME280;7120;52.890;6.040;2023-02-11T03:18:08;103091.38;;;6.99;93.19
14089;BME280;7120;52.890;6.040;2023-02-11T03:20:37;103097.59;;;7.06;92.55
14089;BME280;7120;52.890;6.040;2023-02-11T03:23:28;103082.38;;;6.98;92.49
14089;BME280;7120;52.890;6.040;2023-02-11T03:26:01;103079.38;;;6.81;93.62
14089;BME280;7120;52.890;6.040;2023-02-11T03:28:33;103079.38;;;6.81;94.28
14089;BME280;7120;52.890;6.040;2023-02-11T03:31:05;103073.50;;;6.84;94.43
14089;BME280;7120;52.890;6.040;2023-02-11T03:33:45;103073.16;;;6.74;94.39
14089;BME280;7120;52.890;6.040;2023-02-11T03:36:20;103070.97;;;6.83;93.86
14089;BME280;7120;52.890;6.040;2023-02-11T03:38:49;103083.53;;;6.84;92.76
14089;BME280;7120;52.890;6.040;2023-02-11T03:41:20;103090.00;;;6.83;93.18
14089;BME280;7120;52.890;6.040;2023-02-11T03:43:50;103069.38;;;6.75;93.99
14089;BME280;7120;52.890;6.040;2023-02-11T03:46:18;103074.47;;;6.90;93.57
14089;BME280;7120;52.890;6.040;2023-02-11T03:48:53;103074.09;;;6.86;92.89
14089;BME280;7120;52.890;6.040;2023-02-11T03:51:22;103074.03;;;6.68;94.15
14089;BME280;7120;52.890;6.040;2023-02-11T03:53:51;103074.97;;;6.80;94.29
14089;BME280;7120;52.890;6.040;2023-02-11T03:56:22;103078.34;;;6.76;94.35
14089;BME280;7120;52.890;6.040;2023-02-11T03:58:49;103079.59;;;6.80;94.15
14089;BME280;7120;52.890;6.040;2023-02-11T04:01:15;103072.78;;;6.71;94.30
14089;BME280;7120;52.890;6.040;2023-02-11T04:03:41;103070.00;;;6.77;94.17
14089;BME280;7120;52.890;6.040;2023-02-11T04:06:07;103069.38;;;6.75;94.36
14089;BME280;7120;52.890;6.040;2023-02-11T04:08:32;103061.63;;;6.47;94.52
14089;BME280;7120;52.890;6.040;2023-02-11T04:10:58;103067.09;;;6.72;95.52
14089;BME280;7120;52.890;6.040;2023-02-11T04:13:23;103072.78;;;6.71;94.54
14089;BME280;7120;52.890;6.040;2023-02-11T04:15:49;103074.38;;;6.78;94.58
14089;BME280;7120;52.890;6.040;2023-02-11T04:18:14;103061.63;;;6.79;94.38
14089;BME280;7120;52.890;6.040;2023-02-11T04:20:39;103075.63;;;6.76;94.09
14089;BME280;7120;52.890;6.040;2023-02-11T04:23:05;103077.19;;;6.90;93.94
14089;BME280;7120;52.890;6.040;2023-02-11T04:25:30;103086.09;;;6.79;94.16
14089;BME280;7120;52.890;6.040;2023-02-11T04:27:55;103083.78;;;6.76;94.59
14089;BME280;7120;52.890;6.040;2023-02-11T04:30:21;103080.41;;;6.80;93.55
14089;BME280;7120;52.890;6.040;2023-02-11T04:32:46;103083.16;;;6.80;94.82
14089;BME280;7120;52.890;6.040;2023-02-11T04:35:11;103090.94;;;6.77;95.43
14089;BME280;7120;52.890;6.040;2023-02-11T04:37:37;103092.09;;;6.87;95.35
14089;BME280;7120;52.890;6.040;2023-02-11T04:40:02;103094.69;;;7.01;94.88
14089;BME280;7120;52.890;6.040;2023-02-11T04:42:28;103093.63;;;7.02;94.47
14089;BME280;7120;52.890;6.040;2023-02-11T04:44:53;103092.19;;;6.99;94.15
14089;BME280;7120;52.890;6.040;2023-02-11T04:47:19;103089.56;;;7.11;93.69
14089;BME280;7120;52.890;6.040;2023-02-11T04:49:44;103097.00;;;7.22;94.05
14089;BME280;7120;52.890;6.040;2023-02-11T04:52:09;103102.13;;;7.12;93.08
14089;BME280;7120;52.890;6.040;2023-02-11T04:54:35;103092.91;;;7.13;93.86
14089;BME280;7120;52.890;6.040;2023-02-11T04:57:01;103088.72;;;7.10;94.13
14089;BME280;7120;52.890;6.040;2023-02-11T04:59:27;103081.16;;;7.19;93.88
14089;BME280;7120;52.890;6.040;2023-02-11T05:01:52;103089.56;;;7.36;93.34
14089;BME280;7120;52.890;6.040;2023-02-11T05:04:18;103091.53;;;7.47;92.55
14089;BME280;7120;52.890;6.040;2023-02-11T05:06:43;103090.06;;;7.44;92.50
14089;BME280;7120;52.890;6.040;2023-02-11T05:09:12;103103.03;;;7.49;93.13
14089;BME280;7120;52.890;6.040;2023-02-11T05:11:38;103094.53;;;7.39;92.80
14089;BME280;7120;52.890;6.040;2023-02-11T05:14:05;103089.34;;;7.56;91.93
14089;BME280;7120;52.890;6.040;2023-02-11T05:16:30;103088.66;;;7.60;91.69
14089;BME280;7120;52.890;6.040;2023-02-11T05:18:56;103099.06;;;7.45;92.87
14089;BME280;7120;52.890;6.040;2023-02-11T05:21:22;103098.72;;;7.60;93.39
14089;BME280;7120;52.890;6.040;2023-02-11T05:23:48;103106.50;;;7.56;92.46
14089;BME280;7120;52.890;6.040;2023-02-11T05:26:14;103104.91;;;7.67;92.52
14089;BME280;7120;52.890;6.040;2023-02-11T05:28:40;103094.94;;;7.42;92.60
14089;BME280;7120;52.890;6.040;2023-02-11T05:31:06;103104.38;;;7.58;91.97
14089;BME280;7120;52.890;6.040;2023-02-11T05:33:32;103103.84;;;7.50;92.04
14089;BME280;7120;52.890;6.040;2023-02-11T05:36:02;103090.16;;;7.56;91.95
14089;BME280;7120;52.890;6.040;2023-02-11T05:38:28;103099.59;;;7.54;91.98
14089;BME280;7120;52.890;6.040;2023-02-11T05:40:53;103094.84;;;7.49;92.38
14089;BME280;7120;52.890;6.040;2023-02-11T05:43:19;103093.88;;;7.62;92.77
14089;BME280;7120;52.890;6.040;2023-02-11T05:45:44;103092.50;;;7.53;92.53
14089;BME280;7120;52.890;6.040;2023-02-11T05:48:09;103103.19;;;7.54;91.75
14089;BME280;7120;52.890;6.040;2023-02-11T05:50:35;103093.88;;;7.62;91.75
14089;BME280;7120;52.890;6.040;2023-02-11T05:53:00;103099.78;;;7.59;92.14
14089;BME280;7120;52.890;6.040;2023-02-11T05:55:25;103105.53;;;7.69;91.45
14089;BME280;7120;52.890;6.040;2023-02-11T05:57:51;103111.34;;;7.54;92.31
14089;BME280;7120;52.890;6.040;2023-02-11T06:00:16;103100.69;;;7.71;92.36
14089;BME280;7120;52.890;6.040;2023-02-11T06:02:42;103119.91;;;7.76;91.49
14089;BME280;7120;52.890;6.040;2023-02-11T06:05:08;103116.19;;;7.70;91.85
14089;BME280;7120;52.890;6.040;2023-02-11T06:07:33;103114.22;;;7.78;91.88
14089;BME280;7120;52.890;6.040;2023-02-11T06:09:59;103093.25;;;7.60;91.82
14089;BME280;7120;52.890;6.040;2023-02-11T06:12:24;103104.59;;;7.75;91.57
14089;BME280;7120;52.890;6.040;2023-02-11T06:14:50;103099.72;;;7.84;91.31
14089;BME280;7120;52.890;6.040;2023-02-11T06:17:16;103088.41;;;7.80;90.99
14089;BME280;7120;52.890;6.040;2023-02-11T06:19:41;103082.31;;;7.48;91.46
14089;BME280;7120;52.890;6.040;2023-02-11T06:22:06;103095.97;;;7.60;92.34
14089;BME280;7120;52.890;6.040;2023-02-11T06:24:32;103110.13;;;7.50;93.11
14089;BME280;7120;52.890;6.040;2023-02-11T06:26:57;103100.53;;;7.66;92.75
14089;BME280;7120;52.890;6.040;2023-02-11T06:29:22;103099.16;;;7.57;93.11
14089;BME280;7120;52.890;6.040;2023-02-11T06:31:48;103081.03;;;7.69;92.77
14089;BME280;7120;52.890;6.040;2023-02-11T06:34:13;103106.44;;;7.63;91.89
14089;BME280;7120;52.890;6.040;2023-02-11T06:36:39;103105.38;;;7.64;93.00
14089;BME280;7120;52.890;6.040;2023-02-11T06:39:05;103106.88;;;7.78;92.70
14089;BME280;7120;52.890;6.040;2023-02-11T06:41:31;103112.34;;;7.78;92.28
14089;BME280;7120;52.890;6.040;2023-02-11T06:43:57;103106.56;;;7.86;92.47
14089;BME280;7120;52.890;6.040;2023-02-11T06:46:22;103100.97;;;7.81;92.36
14089;BME280;7120;52.890;6.040;2023-02-11T06:48:48;103115.34;;;7.88;92.55
14089;BME280;7120;52.890;6.040;2023-02-11T06:51:14;103110.72;;;7.89;92.68
14089;BME280;7120;52.890;6.040;2023-02-11T06:53:44;103107.63;;;7.67;92.26
14089;BME280;7120;52.890;6.040;2023-02-11T06:56:16;103106.25;;;7.94;93.16
14089;BME280;7120;52.890;6.040;2023-02-11T06:58:42;103106.28;;;7.76;93.15
14089;BME280;7120;52.890;6.040;2023-02-11T07:01:10;103110.06;;;7.93;93.22
14089;BME280;7120;52.890;6.040;2023-02-11T07:03:38;103095.00;;;7.91;92.06
14089;BME280;7120;52.890;6.040;2023-02-11T07:06:06;103095.38;;;7.94;92.38
14089;BME280;7120;52.890;6.040;2023-02-11T07:08:33;103107.84;;;8.02;92.72
14089;BME280;7120;52.890;6.040;2023-02-11T07:10:58;103109.13;;;8.18;91.41
14089;BME280;7120;52.890;6.040;2023-02-11T07:13:24;103111.69;;;8.13;91.80
14089;BME280;7120;52.890;6.040;2023-02-11T07:15:49;103110.56;;;8.20;91.80
14089;BME280;7120;52.890;6.040;2023-02-11T07:18:14;103113.38;;;8.14;92.17
14089;BME280;7120;52.890;6.040;2023-02-11T07:20:40;103109.41;;;8.10;92.74
14089;BME280;7120;52.890;6.040;2023-02-11T07:23:05;103115.13;;;7.90;92.95
14089;BME280;7120;52.890;6.040;2023-02-11T07:25:31;103112.53;;;7.95;93.24
14089;BME280;7120;52.890;6.040;2023-02-11T07:27:56;103105.06;;;7.90;93.27
14089;BME280;7120;52.890;6.040;2023-02-11T07:30:22;103116.00;;;8.02;93.42
14089;BME280;7120;52.890;6.040;2023-02-11T07:32:47;103124.75;;;8.11;92.65
14089;BME280;7120;52.890;6.040;2023-02-11T07:35:13;103117.84;;;8.08;92.49
14089;BME280;7120;52.890;6.040;2023-02-11T07:37:39;103125.16;;;8.26;91.84
14089;BME280;7120;52.890;6.040;2023-02-11T07:40:06;103125.59;;;8.23;92.40
14089;BME280;7120;52.890;6.040;2023-02-11T07:42:33;103125.84;;;8.21;92.55
14089;BME280;7120;52.890;6.040;2023-02-11T07:44:58;103125.66;;;8.05;91.78
14089;BME280;7120;52.890;6.040;2023-02-11T07:47:24;103120.88;;;8.00;92.66
14089;BME280;7120;52.890;6.040;2023-02-11T07:49:49;103142.44;;;8.20;92.37
14089;BME280;7120;52.890;6.040;2023-02-11T07:52:14;103142.78;;;8.23;91.79
14089;BME280;7120;52.890;6.040;2023-02-11T07:54:40;103126.59;;;8.10;92.20
14089;BME280;7120;52.890;6.040;2023-02-11T07:57:05;103129.16;;;8.23;92.47
14089;BME280;7120;52.890;6.040;2023-02-11T07:59:31;103134.69;;;8.17;92.87
14089;BME280;7120;52.890;6.040;2023-02-11T08:01:56;103125.47;;;8.18;91.89
14089;BME280;7120;52.890;6.040;2023-02-11T08:04:21;103117.16;;;8.13;92.04
14089;BME280;7120;52.890;6.040;2023-02-11T08:06:47;103121.38;;;8.09;92.43
14089;BME280;7120;52.890;6.040;2023-02-11T08:09:15;103122.97;;;8.16;92.93
14089;BME280;7120;52.890;6.040;2023-02-11T08:11:41;103131.84;;;8.12;92.30
14089;BME280;7120;52.890;6.040;2023-02-11T08:14:07;103129.63;;;8.20;92.57
14089;BME280;7120;52.890;6.040;2023-02-11T08:16:34;103141.28;;;8.27;91.69
14089;BME280;7120;52.890;6.040;2023-02-11T08:19:02;103143.41;;;8.25;91.90
14089;BME280;7120;52.890;6.040;2023-02-11T08:21:28;103141.63;;;8.31;92.20
14089;BME280;7120;52.890;6.040;2023-02-11T08:23:55;103143.03;;;8.22;92.29
14089;BME280;7120;52.890;6.040;2023-02-11T08:26:26;103144.44;;;8.43;92.02
14089;BME280;7120;52.890;6.040;2023-02-11T08:28:54;103150.28;;;8.46;91.20
14089;BME280;7120;52.890;6.040;2023-02-11T08:31:28;103145.22;;;8.32;91.17
14089;BME280;7120;52.890;6.040;2023-02-11T08:33:54;103156.72;;;8.34;91.27
14089;BME280;7120;52.890;6.040;2023-02-11T08:36:29;103155.06;;;8.33;91.34
14089;BME280;7120;52.890;6.040;2023-02-11T08:38:56;103170.38;;;8.64;90.62
14089;BME280;7120;52.890;6.040;2023-02-11T08:41:23;103182.50;;;8.68;89.92
14089;BME280;7120;52.890;6.040;2023-02-11T08:43:49;103193.81;;;8.83;89.04
14089;BME280;7120;52.890;6.040;2023-02-11T08:46:17;103196.31;;;8.85;89.30
14089;BME280;7120;52.890;6.040;2023-02-11T08:48:43;103205.56;;;8.84;89.08
14089;BME280;7120;52.890;6.040;2023-02-11T08:51:11;103202.22;;;9.12;88.42
14089;BME280;7120;52.890;6.040;2023-02-11T08:53:37;103198.28;;;9.07;87.49
14089;BME280;7120;52.890;6.040;2023-02-11T08:56:03;103217.97;;;8.98;88.38
14089;BME280;7120;52.890;6.040;2023-02-11T08:58:28;103207.81;;;9.17;87.74
14089;BME280;7120;52.890;6.040;2023-02-11T09:00:53;103208.63;;;9.17;87.48
14089;BME280;7120;52.890;6.040;2023-02-11T09:03:19;103208.75;;;9.22;87.27
14089;BME280;7120;52.890;6.040;2023-02-11T09:05:46;103208.03;;;9.15;86.54
14089;BME280;7120;52.890;6.040;2023-02-11T09:08:12;103205.69;;;9.42;86.93
14089;BME280;7120;52.890;6.040;2023-02-11T09:10:38;103204.00;;;9.29;86.59
14089;BME280;7120;52.890;6.040;2023-02-11T09:13:04;103211.16;;;9.42;86.35
14089;BME280;7120;52.890;6.040;2023-02-11T09:15:30;103206.41;;;9.38;86.10
14089;BME280;7120;52.890;6.040;2023-02-11T09:17:55;103203.69;;;9.73;84.89
14089;BME280;7120;52.890;6.040;2023-02-11T09:20:21;103217.78;;;10.16;83.81
14089;BME280;7120;52.890;6.040;2023-02-11T09:22:47;103217.94;;;9.75;83.89
14089;BME280;7120;52.890;6.040;2023-02-11T09:25:12;103217.34;;;9.96;84.53
14089;BME280;7120;52.890;6.040;2023-02-11T09:27:37;103224.09;;;10.05;83.95
14089;BME280;7120;52.890;6.040;2023-02-11T09:30:03;103223.63;;;10.08;83.06
14089;BME280;7120;52.890;6.040;2023-02-11T09:32:28;103223.84;;;10.07;83.52
14089;BME280;7120;52.890;6.040;2023-02-11T09:34:54;103221.75;;;9.74;84.52
14089;BME280;7120;52.890;6.040;2023-02-11T09:37:19;103226.13;;;10.10;83.56
14089;BME280;7120;52.890;6.040;2023-02-11T09:39:45;103232.91;;;10.31;83.20
14089;BME280;7120;52.890;6.040;2023-02-11T09:42:39;103242.75;;;10.20;82.49
14089;BME280;7120;52.890;6.040;2023-02-11T09:45:22;103250.00;;;10.14;82.58
14089;BME280;7120;52.890;6.040;2023-02-11T09:50:21;103259.03;;;10.50;82.46
14089;BME280;7120;52.890;6.040;2023-02-11T09:55:26;103270.75;;;10.91;81.48
14089;BME280;7120;52.890;6.040;2023-02-11T09:57:52;103251.34;;;10.64;81.20
14089;BME280;7120;52.890;6.040;2023-02-11T10:00:29;103263.47;;;10.68;82.01
14089;BME280;7120;52.890;6.040;2023-02-11T10:08:38;103280.34;;;10.77;80.57
14089;BME280;7120;52.890;6.040;2023-02-11T10:11:11;103293.69;;;10.73;82.13
14089;BME280;7120;52.890;6.040;2023-02-11T10:21:57;103297.16;;;10.97;80.28
14089;BME280;7120;52.890;6.040;2023-02-11T10:24:24;103299.44;;;11.00;79.84
14089;BME280;7120;52.890;6.040;2023-02-11T10:26:52;103297.94;;;10.81;80.23
14089;BME280;7120;52.890;6.040;2023-02-11T10:29:37;103297.25;;;10.73;80.78
14089;BME280;7120;52.890;6.040;2023-02-11T10:32:31;103297.13;;;10.80;80.29
14089;BME280;7120;52.890;6.040;2023-02-11T10:35:02;103289.72;;;10.81;80.43
14089;BME280;7120;52.890;6.040;2023-02-11T10:37:29;103307.03;;;10.98;80.02
14089;BME280;7120;52.890;6.040;2023-02-11T10:39:55;103322.16;;;11.00;80.15
14089;BME280;7120;52.890;6.040;2023-02-11T10:42:20;103320.59;;;11.05;80.51
14089;BME280;7120;52.890;6.040;2023-02-11T10:45:01;103318.66;;;11.05;79.73
14089;BME280;7120;52.890;6.040;2023-02-11T10:47:30;103316.91;;;11.27;79.44
14089;BME280;7120;52.890;6.040;2023-02-11T10:49:58;103321.03;;;11.42;79.44
14089;BME280;7120;52.890;6.040;2023-02-11T10:52:28;103319.69;;;11.61;78.13
14089;BME280;7120;52.890;6.040;2023-02-11T10:55:14;103327.75;;;11.68;77.83
14089;BME280;7120;52.890;6.040;2023-02-11T10:58:00;103312.13;;;11.51;78.17
14089;BME280;7120;52.890;6.040;2023-02-11T11:00:35;103328.28;;;11.81;77.52
14089;BME280;7120;52.890;6.040;2023-02-11T11:03:15;103319.72;;;11.95;77.12
14089;BME280;7120;52.890;6.040;2023-02-11T11:05:57;103329.00;;;12.27;75.50
14089;BME280;7120;52.890;6.040;2023-02-11T11:11:09;103324.91;;;12.30;75.28
14089;BME280;7120;52.890;6.040;2023-02-11T11:16:22;103332.28;;;11.91;75.46
14089;BME280;7120;52.890;6.040;2023-02-11T11:18:51;103323.53;;;12.10;75.40
14089;BME280;7120;52.890;6.040;2023-02-11T11:21:34;103327.69;;;12.52;74.07
14089;BME280;7120;52.890;6.040;2023-02-11T11:24:01;103331.50;;;12.29;74.63
14089;BME280;7120;52.890;6.040;2023-02-11T11:26:39;103327.06;;;12.06;74.22
14089;BME280;7120;52.890;6.040;2023-02-11T11:29:13;103332.50;;;12.23;74.62
14089;BME280;7120;52.890;6.040;2023-02-11T11:34:29;103335.09;;;12.13;74.95
14089;BME280;7120;52.890;6.040;2023-02-11T11:36:57;103343.38;;;12.18;74.95
14089;BME280;7120;52.890;6.040;2023-02-11T11:39:26;103349.59;;;11.91;75.54
14089;BME280;7120;52.890;6.040;2023-02-11T11:42:03;103345.91;;;11.86;74.82
14089;BME280;7120;52.890;6.040;2023-02-11T11:44:35;103345.41;;;11.89;75.60
14089;BME280;7120;52.890;6.040;2023-02-11T11:55:18;103353.81;;;11.99;76.04
14089;BME280;7120;52.890;6.040;2023-02-11T11:57:45;103358.38;;;12.27;74.29
14089;BME280;7120;52.890;6.040;2023-02-11T12:05:35;103361.00;;;12.38;75.10
14089;BME280;7120;52.890;6.040;2023-02-11T12:08:23;103355.13;;;12.52;74.54
14089;BME280;7120;52.890;6.040;2023-02-11T12:13:48;103364.19;;;12.14;73.38
14089;BME280;7120;52.890;6.040;2023-02-11T12:16:19;103361.00;;;12.38;73.78
14089;BME280;7120;52.890;6.040;2023-02-11T12:27:01;103358.28;;;12.82;71.83
14089;BME280;7120;52.890;6.040;2023-02-11T12:32:45;103349.81;;;12.62;71.62
14089;BME280;7120;52.890;6.040;2023-02-11T12:35:19;103345.53;;;12.32;73.47
14089;BME280;7120;52.890;6.040;2023-02-11T12:40:45;103337.91;;;12.34;72.92
14089;BME280;7120;52.890;6.040;2023-02-11T12:43:16;103338.00;;;12.23;73.74
14089;BME280;7120;52.890;6.040;2023-02-11T12:51:51;103351.66;;;12.40;72.85
14089;BME280;7120;52.890;6.040;2023-02-11T12:56:58;103358.78;;;12.57;73.90
14089;BME280;7120;52.890;6.040;2023-02-11T13:02:05;103344.81;;;12.20;73.00
14089;BME280;7120;52.890;6.040;2023-02-11T13:04:38;103343.31;;;12.29;72.62
14089;BME280;7120;52.890;6.040;2023-02-11T13:07:18;103333.81;;;12.37;73.77
14089;BME280;7120;52.890;6.040;2023-02-11T13:12:47;103309.56;;;12.12;72.27
14089;BME280;7120;52.890;6.040;2023-02-11T13:15:32;103326.41;;;12.59;72.21
14089;BME280;7120;52.890;6.040;2023-02-11T13:18:04;103331.31;;;12.35;72.18
14089;BME280;7120;52.890;6.040;2023-02-11T13:20:37;103337.81;;;12.29;72.16
14089;BME280;7120;52.890;6.040;2023-02-11T13:23:35;103342.78;;;12.32;72.37
14089;BME280;7120;52.890;6.040;2023-02-11T13:26:23;103350.56;;;12.02;73.51
14089;BME280;7120;52.890;6.040;2023-02-11T13:32:13;103331.59;;;12.17;72.82
14089;BME280;7120;52.890;6.040;2023-02-11T13:40:40;103342.91;;;12.04;72.15
14089;BME280;7120;52.890;6.040;2023-02-11T13:48:04;103348.72;;;11.91;72.42
14089;BME280;7120;52.890;6.040;2023-02-11T13:50:37;103342.66;;;11.89;72.54
14089;BME280;7120;52.890;6.040;2023-02-11T13:53:05;103346.78;;;11.58;73.95
14089;BME280;7120;52.890;6.040;2023-02-11T13:55:34;103342.72;;;11.77;74.19
14089;BME280;7120;52.890;6.040;2023-02-11T14:00:45;103352.31;;;11.46;74.20
14089;BME280;7120;52.890;6.040;2023-02-11T14:14:30;103356.88;;;11.40;74.60
14089;BME280;7120;52.890;6.040;2023-02-11T14:19:42;103355.91;;;11.92;73.52
14089;BME280;7120;52.890;6.040;2023-02-11T14:25:01;103362.84;;;11.82;75.09
14089;BME280;7120;52.890;6.040;2023-02-11T14:27:29;103359.28;;;11.82;73.77
14089;BME280;7120;52.890;6.040;2023-02-11T14:30:09;103352.09;;;11.64;74.33
14089;BME280;7120;52.890;6.040;2023-02-11T14:33:19;103352.63;;;11.95;73.83
14089;BME280;7120;52.890;6.040;2023-02-11T14:41:25;103355.94;;;11.63;74.27
14089;BME280;7120;52.890;6.040;2023-02-11T14:43:57;103358.31;;;11.76;74.14
14089;BME280;7120;52.890;6.040;2023-02-11T14:46:24;103367.88;;;11.74;73.69
14089;BME280;7120;52.890;6.040;2023-02-11T14:48:53;103358.63;;;11.46;74.30
14089;BME280;7120;52.890;6.040;2023-02-11T14:51:22;103377.53;;;11.31;75.62
14089;BME280;7120;52.890;6.040;2023-02-11T14:53:52;103367.91;;;11.28;74.62
14089;BME280;7120;52.890;6.040;2023-02-11T14:56:24;103364.78;;;11.25;76.57
14089;BME280;7120;52.890;6.040;2023-02-11T14:58:51;103362.63;;;11.55;75.58
14089;BME280;7120;52.890;6.040;2023-02-11T15:03:54;103374.66;;;11.54;75.62
14089;BME280;7120;52.890;6.040;2023-02-11T15:06:34;103381.31;;;11.59;75.15
14089;BME280;7120;52.890;6.040;2023-02-11T15:09:12;103372.22;;;11.41;74.99
14089;BME280;7120;52.890;6.040;2023-02-11T15:11:42;103381.19;;;11.37;75.54
14089;BME280;7120;52.890;6.040;2023-02-11T15:16:44;103372.63;;;11.33;76.72
14089;BME280;7120;52.890;6.040;2023-02-11T15:19:31;103360.66;;;11.22;76.46
14089;BME280;7120;52.890;6.040;2023-02-11T15:22:00;103382.41;;;11.29;76.67
14089;BME280;7120;52.890;6.040;2023-02-11T15:24:32;103380.97;;;11.26;77.08
14089;BME280;7120;52.890;6.040;2023-02-11T15:27:10;103385.09;;;11.12;77.33
14089;BME280;7120;52.890;6.040;2023-02-11T15:29:43;103382.16;;;11.02;77.36
14089;BME280;7120;52.890;6.040;2023-02-11T15:32:15;103392.41;;;10.95;78.34
14089;BME280;7120;52.890;6.040;2023-02-11T15:34:42;103383.44;;;11.11;78.09
14089;BME280;7120;52.890;6.040;2023-02-11T15:37:22;103402.72;;;11.05;76.81
14089;BME280;7120;52.890;6.040;2023-02-11T15:39:48;103395.47;;;10.98;77.69
14089;BME280;7120;52.890;6.040;2023-02-11T15:44:43;103406.78;;;11.02;78.35
14089;BME280;7120;52.890;6.040;2023-02-11T15:47:10;103414.78;;;10.92;77.93
14089;BME280;7120;52.890;6.040;2023-02-11T15:49:36;103407.31;;;10.87;77.61